Time;durP1;ratioP1;P1;durP2;ratioP2;P2;SDS_P1;SDS_P2;PMS_P1;PMS_P2;Temp;Humidity;BMP_temperature;BMP_pressure;BME280_temperature;BME280_humidity;BME280_pressure;Samples;Min_cycle;Max_cycle;Signal;HPM_P1;HPM_P2
2022/03/06 00:01:44;;;;;;;94.87;38.27;;;-0.40;99.90;;;;;;10350159;28;20044;-86
2022/03/06 00:06:45;;;;;;;96.97;41.80;;;-0.50;99.90;;;;;;10367997;28;20482;-87
2022/03/06 00:11:45;;;;;;;95.13;39.70;;;-0.50;99.90;;;;;;10367991;28;20040;-88
2022/03/06 00:16:47;;;;;;;89.37;37.77;;;-0.50;99.90;;;;;;10367137;28;20037;-88
2022/03/06 00:21:47;;;;;;;100.53;41.37;;;-0.40;99.90;;;;;;10367272;28;20080;-86
2022/03/06 00:26:48;;;;;;;111.33;43.00;;;-0.40;99.90;;;;;;10367390;28;20040;-87
2022/03/06 00:31:49;;;;;;;112.47;49.23;;;-0.40;99.90;;;;;;10366892;28;20462;-86
2022/03/06 00:36:49;;;;;;;109.53;46.90;;;-0.50;99.90;;;;;;10367896;28;20054;-86
2022/03/06 00:41:50;;;;;;;108.30;46.03;;;-0.40;99.90;;;;;;10349454;28;20092;-86
2022/03/06 00:46:51;;;;;;;105.40;43.83;;;-0.40;99.90;;;;;;10366392;28;20048;-86
2022/03/06 00:51:51;;;;;;;100.23;42.67;;;-0.40;99.90;;;;;;10366338;28;20040;-86
2022/03/06 00:56:52;;;;;;;93.87;41.83;;;-0.40;99.90;;;;;;10367507;28;20029;-86
2022/03/06 01:01:53;;;;;;;97.43;40.80;;;-0.50;99.90;;;;;;10348538;28;20041;-86
2022/03/06 01:06:53;;;;;;;88.20;38.50;;;-0.50;99.90;;;;;;10366909;28;20034;-86
2022/03/06 01:11:54;;;;;;;88.00;37.57;;;-0.50;99.90;;;;;;10367449;28;20036;-86
2022/03/06 01:16:55;;;;;;;87.83;36.67;;;-0.50;99.90;;;;;;10365851;28;20022;-86
2022/03/06 01:21:56;;;;;;;88.93;36.73;;;-0.50;99.90;;;;;;10366600;28;20032;-86
2022/03/06 01:26:56;;;;;;;85.53;36.87;;;-0.50;99.90;;;;;;10366268;28;20072;-86
2022/03/06 01:31:57;;;;;;;82.03;36.17;;;-0.50;99.90;;;;;;10365624;28;20038;-86
2022/03/06 01:36:58;;;;;;;75.97;34.80;;;-0.50;99.90;;;;;;10365522;28;20058;-87
2022/03/06 01:41:59;;;;;;;82.77;35.67;;;-0.50;99.90;;;;;;10365595;28;20421;-86
2022/03/06 01:47:00;;;;;;;79.10;36.30;;;-0.40;99.90;;;;;;10365557;28;20152;-87
2022/03/06 01:52:00;;;;;;;81.93;34.40;;;-0.50;99.90;;;;;;10365988;28;20040;-86
2022/03/06 01:57:01;;;;;;;79.77;34.67;;;-0.50;99.90;;;;;;10365566;28;20096;-88
2022/03/06 02:02:02;;;;;;;90.00;35.93;;;-0.50;99.90;;;;;;10354961;28;20030;-88
2022/03/06 02:07:03;;;;;;;76.40;33.87;;;-0.40;99.90;;;;;;10373135;28;20037;-88
2022/03/06 02:12:23;;;;;;;79.30;34.37;;;-0.50;99.90;;;;;;10372921;28;20060;-86
2022/03/06 02:17:24;;;;;;;77.27;35.87;;;-0.40;99.90;;;;;;10372207;28;20116;-87
2022/03/06 02:22:31;;;;;;;75.23;35.67;;;-0.40;99.90;;;;;;10373364;28;20024;-86
2022/03/06 02:27:31;;;;;;;81.70;36.47;;;-0.40;99.90;;;;;;10371375;28;20099;-87
2022/03/06 02:32:33;;;;;;;75.57;35.73;;;-0.30;99.90;;;;;;10372221;28;20068;-86
2022/03/06 02:37:34;;;;;;;80.67;34.80;;;-0.40;99.90;;;;;;10370842;28;20449;-86
2022/03/06 02:42:37;;;;;;;78.57;35.47;;;-0.40;99.90;;;;;;10372017;28;20041;-86
2022/03/06 02:47:39;;;;;;;78.57;34.70;;;-0.40;99.90;;;;;;10369873;28;20034;-86
2022/03/06 02:52:40;;;;;;;76.17;34.40;;;-0.40;99.90;;;;;;10353853;28;20032;-88
2022/03/06 02:57:41;;;;;;;79.27;35.00;;;-0.40;99.90;;;;;;10353705;28;20478;-86
2022/03/06 03:02:42;;;;;;;75.30;33.00;;;-0.40;99.90;;;;;;10369781;28;20441;-88
2022/03/06 03:07:45;;;;;;;85.73;37.63;;;-0.30;99.90;;;;;;10369553;28;20493;-86
2022/03/06 03:12:46;;;;;;;74.07;35.43;;;-0.30;99.90;;;;;;10353044;28;20049;-86
2022/03/06 03:17:47;;;;;;;79.33;33.47;;;-0.30;99.90;;;;;;10368888;28;20080;-86
2022/03/06 03:22:48;;;;;;;86.47;37.63;;;-0.30;99.90;;;;;;10370751;28;20060;-87
2022/03/06 03:27:48;;;;;;;74.30;33.10;;;-0.40;99.90;;;;;;10370024;28;20052;-86
2022/03/06 03:32:49;;;;;;;83.13;35.43;;;-0.30;99.90;;;;;;10369963;28;20116;-86
2022/03/06 03:37:50;;;;;;;79.17;34.33;;;-0.20;99.90;;;;;;10369399;28;20686;-86
2022/03/06 03:42:50;;;;;;;74.77;34.93;;;-0.20;99.90;;;;;;10369729;28;20366;-86
2022/03/06 03:47:51;;;;;;;71.27;33.67;;;-0.20;99.90;;;;;;10368753;28;20072;-86
2022/03/06 03:52:52;;;;;;;71.63;32.17;;;-0.20;99.90;;;;;;10369259;28;20033;-86
2022/03/06 03:57:52;;;;;;;76.57;33.37;;;-0.20;99.90;;;;;;10368896;28;20112;-86
2022/03/06 04:02:53;;;;;;;73.20;30.97;;;-0.20;99.90;;;;;;10349699;28;20045;-86
2022/03/06 04:07:54;;;;;;;66.93;31.97;;;-0.30;99.90;;;;;;10367969;28;20534;-86
2022/03/06 04:12:54;;;;;;;73.57;31.47;;;-0.30;99.90;;;;;;10368828;28;20494;-88
2022/03/06 04:17:55;;;;;;;76.50;34.00;;;-0.40;99.90;;;;;;10349697;28;20034;-87
2022/03/06 04:22:56;;;;;;;71.50;31.97;;;-0.40;99.90;;;;;;10366969;28;20038;-86
2022/03/06 04:27:57;;;;;;;71.33;32.27;;;-0.40;99.90;;;;;;10367665;28;20111;-86
2022/03/06 04:32:58;;;;;;;70.57;33.57;;;-0.40;99.90;;;;;;10366511;28;20045;-86
2022/03/06 04:37:58;;;;;;;72.03;32.03;;;-0.40;99.90;;;;;;10367670;28;20041;-88
2022/03/06 04:42:59;;;;;;;70.13;32.10;;;-0.40;99.90;;;;;;10350451;28;20785;-86
2022/03/06 04:48:00;;;;;;;73.37;32.97;;;-0.40;99.90;;;;;;10367073;28;20042;-88
2022/03/06 04:53:00;;;;;;;74.73;34.67;;;-0.40;99.90;;;;;;10367589;28;20033;-88
2022/03/06 04:58:02;;;;;;;73.97;32.93;;;-0.40;99.90;;;;;;10366706;28;20060;-87
2022/03/06 05:03:02;;;;;;;71.27;32.90;;;-0.50;99.90;;;;;;10366796;28;20038;-84
2022/03/06 05:08:03;;;;;;;74.00;32.53;;;-0.50;99.90;;;;;;10366994;28;20068;-87
2022/03/06 05:13:04;;;;;;;74.23;33.23;;;-0.50;99.90;;;;;;10364201;28;20379;-86
2022/03/06 05:18:05;;;;;;;66.50;30.33;;;-0.40;99.90;;;;;;10365243;28;20026;-86
2022/03/06 05:23:06;;;;;;;67.33;31.50;;;-0.40;99.90;;;;;;10366136;28;20489;-85
2022/03/06 05:28:06;;;;;;;72.40;31.53;;;-0.40;99.90;;;;;;10365952;28;20042;-86
2022/03/06 05:33:07;;;;;;;71.77;32.43;;;-0.50;99.90;;;;;;10366565;28;20038;-85
2022/03/06 05:38:08;;;;;;;74.20;32.73;;;-0.50;99.90;;;;;;10346839;28;20222;-87
2022/03/06 05:43:09;;;;;;;71.07;32.60;;;-0.50;99.90;;;;;;10371610;28;20461;-85
2022/03/06 05:48:09;;;;;;;69.47;31.40;;;-0.40;99.90;;;;;;10372641;28;20045;-85
2022/03/06 05:59:35;;;;;;;82.90;39.23;;;-0.30;99.90;;;;;;10163617;29;20091;-85
2022/03/06 06:05:10;;;;;;;82.23;38.70;;;-0.30;99.90;;;;;;10206010;29;20607;-86
2022/03/06 06:10:38;;;;;;;69.90;32.03;;;-0.20;99.90;;;;;;10073402;29;20060;-85
2022/03/06 06:15:39;;;;;;;60.03;28.53;;;-0.10;99.90;;;;;;10088949;29;20055;-86
2022/03/06 06:20:40;;;;;;;64.30;30.63;;;-0.10;99.90;;;;;;10169940;29;20131;-85
2022/03/06 06:25:40;;;;;;;67.27;30.57;;;-0.10;99.90;;;;;;10189294;29;20046;-85
2022/03/06 06:30:41;;;;;;;70.83;30.40;;;-0.10;99.90;;;;;;10235408;28;20037;-85
2022/03/06 06:35:42;;;;;;;68.40;30.93;;;0.00;99.90;;;;;;10364255;28;20033;-85
2022/03/06 06:40:43;;;;;;;67.23;32.17;;;0.00;99.90;;;;;;10353813;28;20521;-85
2022/03/06 06:45:44;;;;;;;60.53;27.90;;;0.00;99.90;;;;;;10370565;28;20030;-85
2022/03/06 06:50:44;;;;;;;64.33;29.40;;;0.00;99.90;;;;;;10371015;28;20105;-85
2022/03/06 06:55:45;;;;;;;55.70;27.37;;;0.00;99.90;;;;;;10352614;28;20824;-85
2022/03/06 07:07:02;;;;;;;57.03;24.70;;;0.10;99.90;;;;;;10331335;28;20046;-86
2022/03/06 07:17:44;;;;;;;45.53;21.67;;;0.10;99.90;;;;;;10369388;28;20041;-88
2022/03/06 07:23:31;;;;;;;37.13;17.93;;;0.20;99.90;;;;;;10366683;28;20046;-87
2022/03/06 07:28:32;;;;;;;30.00;15.90;;;0.20;99.90;;;;;;10361591;28;20037;-89
2022/03/06 07:33:33;;;;;;;35.53;15.70;;;0.30;99.90;;;;;;10345522;28;20490;-90
2022/03/06 07:38:34;;;;;;;36.13;15.77;;;0.40;99.90;;;;;;10365743;28;20073;-90
2022/03/06 07:43:35;;;;;;;43.80;21.07;;;0.50;99.90;;;;;;10355007;28;20036;-89
2022/03/06 07:48:37;;;;;;;61.77;28.53;;;0.60;99.90;;;;;;10351654;28;20044;-88
2022/03/06 07:53:37;;;;;;;52.87;25.60;;;0.70;99.90;;;;;;10350967;28;20293;-88
2022/03/06 07:58:38;;;;;;;61.37;29.70;;;0.90;99.90;;;;;;10368047;28;20108;-87
2022/03/06 08:03:39;;;;;;;55.20;25.13;;;1.00;99.90;;;;;;10356717;28;20034;-86
2022/03/06 08:08:40;;;;;;;56.70;26.00;;;1.10;99.90;;;;;;10341228;28;20441;-88
2022/03/06 08:13:41;;;;;;;59.00;27.30;;;1.30;99.90;;;;;;10339806;28;20088;-88
2022/03/06 08:18:42;;;;;;;51.73;24.50;;;1.50;99.90;;;;;;10357665;28;20033;-86
2022/03/06 08:23:43;;;;;;;60.93;27.27;;;1.40;99.90;;;;;;10365752;28;20494;-88
2022/03/06 08:28:44;;;;;;;68.83;25.87;;;1.30;99.90;;;;;;10369415;28;20038;-88
2022/03/06 08:33:46;;;;;;;115.37;55.33;;;1.30;99.90;;;;;;10364863;28;20060;-87
2022/03/06 08:38:47;;;;;;;77.93;35.17;;;1.30;99.90;;;;;;10378165;28;20054;-88
2022/03/06 08:43:47;;;;;;;116.80;51.60;;;1.50;99.90;;;;;;10405653;28;20026;-85
2022/03/06 08:48:48;;;;;;;40.53;23.97;;;1.80;99.90;;;;;;10360657;28;20058;-86
2022/03/06 08:53:49;;;;;;;27.33;13.53;;;2.00;99.90;;;;;;10376503;28;20105;-88
2022/03/06 08:58:50;;;;;;;45.63;20.27;;;2.10;99.90;;;;;;10350015;28;20029;-87
2022/03/06 09:03:50;;;;;;;75.83;37.77;;;2.10;99.90;;;;;;10371870;28;20036;-87
2022/03/06 09:08:51;;;;;;;53.37;23.73;;;2.10;99.90;;;;;;10352364;28;20034;-87
2022/03/06 09:13:52;;;;;;;53.40;25.77;;;2.20;99.90;;;;;;10374776;28;20555;-88
2022/03/06 09:18:52;;;;;;;36.03;24.17;;;2.50;99.90;;;;;;10373618;28;20104;-88
2022/03/06 09:23:53;;;;;;;37.60;20.53;;;2.40;99.90;;;;;;10376239;28;20045;-89
2022/03/06 09:28:54;;;;;;;101.50;52.23;;;2.40;99.90;;;;;;10355586;28;20088;-88
2022/03/06 09:33:55;;;;;;;60.50;25.07;;;2.50;99.90;;;;;;10374832;28;20091;-88
2022/03/06 09:38:55;;;;;;;76.80;29.33;;;2.70;99.90;;;;;;10355377;28;20050;-90
2022/03/06 09:43:57;;;;;;;79.53;31.57;;;2.90;99.90;;;;;;10366870;28;20523;-89
2022/03/06 09:48:57;;;;;;;688.43;354.10;;;2.90;99.90;;;;;;10372936;28;20104;-88
2022/03/06 09:54:01;;;;;;;21.23;10.70;;;3.00;99.90;;;;;;10373252;28;20038;-87
2022/03/06 09:59:02;;;;;;;29.30;13.80;;;2.80;93.20;;;;;;10354064;28;20123;-88
2022/03/06 10:04:29;;;;;;;26.27;12.87;;;3.40;99.90;;;;;;10370973;28;20030;-87
2022/03/06 10:09:42;;;;;;;34.77;14.53;;;4.20;92.50;;;;;;10364007;28;20046;-90
2022/03/06 10:14:44;;;;;;;41.23;18.03;;;5.10;97.00;;;;;;10353410;28;20551;-89
2022/03/06 10:19:51;;;;;;;22.10;10.27;;;5.70;93.30;;;;;;10366908;28;20037;-87
2022/03/06 10:25:07;;;;;;;30.57;13.70;;;6.00;79.10;;;;;;10342245;28;20552;-89
2022/03/06 10:30:29;;;;;;;17.95;9.30;;;6.00;78.00;;;;;;10366230;28;20481;-85
2022/03/06 10:35:32;;;;;;;13.87;8.43;;;5.90;64.20;;;;;;10357323;28;20493;-86
2022/03/06 10:40:35;;;;;;;31.90;15.30;;;4.90;73.80;;;;;;10353046;28;20042;-86
2022/03/06 10:45:35;;;;;;;77.87;28.03;;;4.70;79.70;;;;;;10369521;28;20099;-86
2022/03/06 10:50:43;;;;;;;142.23;53.67;;;4.50;81.80;;;;;;10373896;28;20040;-88
2022/03/06 10:55:44;;;;;;;104.73;40.50;;;4.30;80.60;;;;;;10349502;28;20030;-85
2022/03/06 11:00:46;;;;;;;88.97;37.13;;;4.40;81.10;;;;;;10346286;28;20448;-87
2022/03/06 11:05:48;;;;;;;153.57;73.23;;;4.60;77.90;;;;;;10349137;28;20029;-89
2022/03/06 11:10:49;;;;;;;49.43;23.60;;;4.40;82.00;;;;;;10353440;28;20041;-90
2022/03/06 11:15:51;;;;;;;42.50;21.67;;;4.20;78.30;;;;;;10366807;28;20497;-87
2022/03/06 11:20:53;;;;;;;44.53;23.47;;;4.10;79.00;;;;;;10351086;28;20033;-86
2022/03/06 11:26:09;;;;;;;73.33;31.87;;;4.10;80.40;;;;;;10367933;28;20557;-87
2022/03/06 11:31:10;;;;;;;63.75;24.52;;;4.00;81.80;;;;;;10357951;28;20760;-89
2022/03/06 11:36:20;;;;;;;56.03;22.70;;;4.00;80.50;;;;;;10360594;28;20054;-88
2022/03/06 11:41:24;;;;;;;60.30;25.23;;;3.90;77.10;;;;;;10362228;28;20029;-87
2022/03/06 11:46:26;;;;;;;108.70;40.90;;;3.80;79.10;;;;;;10352642;28;20041;-86
2022/03/06 11:51:30;;;;;;;95.73;38.23;;;3.80;80.10;;;;;;10364280;28;20363;-85
2022/03/06 11:56:31;;;;;;;53.93;22.33;;;3.70;80.20;;;;;;10368585;28;20033;-86
2022/03/06 12:01:44;;;;;;;111.57;51.53;;;3.70;80.10;;;;;;10367335;28;20031;-86
2022/03/06 12:06:47;;;;;;;117.33;55.97;;;3.80;81.10;;;;;;10352699;28;20498;-86
2022/03/06 12:11:51;;;;;;;116.67;60.67;;;4.00;83.80;;;;;;10360591;28;20032;-85
2022/03/06 12:17:01;;;;;;;106.97;59.77;;;4.50;80.90;;;;;;10366751;28;20022;-86
2022/03/06 12:22:20;;;;;;;128.47;79.37;;;4.80;78.10;;;;;;10334277;28;20088;-85
2022/03/06 12:27:25;;;;;;;134.47;66.27;;;4.60;77.00;;;;;;10364526;28;20038;-85
2022/03/06 12:32:29;;;;;;;90.77;42.17;;;4.40;79.90;;;;;;10348674;28;20037;-84
2022/03/06 12:37:50;;;;;;;129.30;58.33;;;4.20;79.70;;;;;;10358463;28;20046;-86
2022/03/06 12:43:02;;;;;;;20.83;11.40;;;3.70;77.30;;;;;;10366044;28;20034;-85
2022/03/06 12:48:03;;;;;;;32.53;15.50;;;3.30;76.70;;;;;;10365219;28;20076;-85
2022/03/06 12:53:04;;;;;;;43.80;20.50;;;2.90;78.40;;;;;;10359825;28;20027;-86
2022/03/06 12:58:05;;;;;;;326.03;155.40;;;2.80;79.70;;;;;;10366439;28;20030;-86
2022/03/06 13:03:07;;;;;;;392.20;171.30;;;2.50;76.00;;;;;;10367111;28;20030;-88
2022/03/06 13:08:08;;;;;;;28.47;14.87;;;2.30;76.60;;;;;;10365521;28;20119;-86
2022/03/06 13:13:09;;;;;;;31.27;17.97;;;2.40;77.30;;;;;;10359338;28;20030;-85
2022/03/06 13:18:10;;;;;;;30.53;18.57;;;2.30;79.00;;;;;;10365854;28;20030;-82
2022/03/06 13:23:20;;;;;;;24.27;12.57;;;2.10;76.80;;;;;;10345184;28;20061;-86
2022/03/06 13:28:21;;;;;;;23.80;13.57;;;2.10;78.60;;;;;;10364811;28;20041;-87
2022/03/06 13:33:21;;;;;;;22.07;11.13;;;2.30;78.60;;;;;;10363904;28;20433;-85
2022/03/06 13:38:24;;;;;;;20.73;11.40;;;2.30;78.30;;;;;;10360793;28;20042;-86
2022/03/06 13:43:38;;;;;;;25.87;14.00;;;2.30;77.20;;;;;;10344706;28;20034;-87
2022/03/06 13:48:39;;;;;;;25.07;12.93;;;2.30;77.20;;;;;;10340498;28;20038;-86
2022/03/06 13:53:55;;;;;;;20.03;10.30;;;2.10;74.80;;;;;;10366715;28;20088;-82
2022/03/06 13:58:57;;;;;;;348.70;166.95;;;1.80;75.80;;;;;;10367057;28;20097;-83
2022/03/06 14:04:00;;;;;;;88.17;43.23;;;1.70;78.10;;;;;;10384144;22;20053;-87
2022/03/06 14:09:16;;;;;;;22.73;11.67;;;1.50;80.00;;;;;;10406587;28;20052;-85
2022/03/06 14:14:17;;;;;;;20.20;11.37;;;1.40;81.00;;;;;;10406894;28;20089;-86
2022/03/06 14:19:18;;;;;;;27.33;12.57;;;1.30;82.10;;;;;;10411621;28;20021;-85
2022/03/06 14:24:19;;;;;;;22.10;11.47;;;1.20;82.00;;;;;;10415156;28;20051;-86
2022/03/06 14:29:23;;;;;;;23.23;12.40;;;1.10;82.50;;;;;;10405754;28;20038;-85
2022/03/06 14:34:27;;;;;;;23.80;11.63;;;1.20;83.50;;;;;;10408366;28;20029;-85
2022/03/06 14:39:29;;;;;;;21.90;11.43;;;1.20;84.10;;;;;;10395134;28;20026;-86
2022/03/06 14:44:30;;;;;;;25.30;12.63;;;1.20;83.80;;;;;;10407689;28;20018;-85
2022/03/06 14:49:31;;;;;;;22.80;11.27;;;1.20;84.40;;;;;;10412007;28;20033;-85
2022/03/06 14:54:31;;;;;;;27.17;14.03;;;1.10;82.00;;;;;;10411262;28;20151;-85
2022/03/06 14:59:32;;;;;;;25.00;12.83;;;1.20;83.60;;;;;;10389942;28;20033;-85
2022/03/06 15:04:33;;;;;;;23.07;11.77;;;1.30;84.50;;;;;;10390706;28;20049;-85
2022/03/06 15:09:33;;;;;;;26.67;13.00;;;1.50;84.40;;;;;;10379950;28;20132;-86
2022/03/06 15:14:34;;;;;;;27.43;12.83;;;1.50;85.20;;;;;;10399388;28;20030;-83
2022/03/06 15:19:38;;;;;;;31.57;13.80;;;1.40;82.70;;;;;;10404137;28;20630;-85
2022/03/06 15:24:38;;;;;;;25.80;13.37;;;1.30;83.60;;;;;;10404091;28;20495;-85
2022/03/06 15:29:39;;;;;;;22.27;12.23;;;1.20;84.60;;;;;;10409530;28;20040;-85
2022/03/06 15:34:40;;;;;;;27.37;14.17;;;1.10;84.50;;;;;;10420212;28;20068;-86
2022/03/06 15:39:44;;;;;;;33.97;14.83;;;1.10;85.60;;;;;;10410943;28;20025;-85
2022/03/06 15:44:45;;;;;;;28.63;13.77;;;1.10;85.10;;;;;;10401631;28;20033;-84
2022/03/06 15:49:47;;;;;;;27.23;13.77;;;1.10;85.70;;;;;;10398373;28;20144;-85
2022/03/06 15:54:49;;;;;;;27.80;14.77;;;1.10;85.80;;;;;;10406201;28;20064;-85
2022/03/06 15:59:50;;;;;;;28.77;12.83;;;1.10;86.10;;;;;;10406517;28;20132;-85
2022/03/06 16:04:51;;;;;;;32.13;15.53;;;1.10;86.70;;;;;;10406857;28;20523;-85
2022/03/06 16:09:52;;;;;;;28.67;13.17;;;1.00;86.30;;;;;;10395991;28;20125;-85
2022/03/06 16:14:52;;;;;;;34.70;17.20;;;1.10;87.70;;;;;;10396075;28;20030;-85
2022/03/06 16:19:53;;;;;;;36.67;18.10;;;1.10;87.30;;;;;;10390452;28;20022;-82
2022/03/06 16:24:54;;;;;;;36.50;17.03;;;1.10;88.20;;;;;;10383245;28;20025;-86
2022/03/06 16:29:58;;;;;;;35.00;16.50;;;1.10;88.70;;;;;;10387356;28;20038;-84
2022/03/06 16:34:59;;;;;;;25.23;13.33;;;1.10;89.20;;;;;;10405982;28;20021;-85
2022/03/06 16:40:00;;;;;;;26.23;13.13;;;1.00;90.10;;;;;;10409899;28;20063;-85
2022/03/06 16:45:01;;;;;;;28.50;14.63;;;1.00;90.10;;;;;;10406011;28;20539;-85
2022/03/06 16:50:04;;;;;;;31.13;14.00;;;1.00;90.60;;;;;;10405224;28;20045;-85
2022/03/06 16:55:06;;;;;;;28.87;13.83;;;0.90;91.20;;;;;;10405946;28;20420;-83
2022/03/06 17:00:09;;;;;;;27.13;13.87;;;0.90;91.40;;;;;;10406411;28;20032;-85
2022/03/06 17:05:10;;;;;;;38.63;17.07;;;0.90;90.70;;;;;;10406303;28;20509;-85
2022/03/06 17:10:12;;;;;;;40.13;18.00;;;0.80;90.10;;;;;;10389027;28;20132;-85
2022/03/06 17:15:13;;;;;;;40.93;19.73;;;0.70;89.20;;;;;;10406797;28;20557;-85
2022/03/06 17:20:15;;;;;;;44.50;21.47;;;0.70;90.10;;;;;;10431683;28;20029;-87
2022/03/06 17:25:17;;;;;;;45.40;22.10;;;0.70;90.20;;;;;;10415231;28;20088;-85
2022/03/06 17:30:18;;;;;;;45.93;21.10;;;0.70;89.70;;;;;;10404736;28;20034;-85
2022/03/06 17:35:19;;;;;;;39.13;20.40;;;0.70;90.50;;;;;;10413974;28;20477;-85
2022/03/06 17:40:20;;;;;;;42.50;20.10;;;0.70;91.20;;;;;;10406664;28;20041;-85
2022/03/06 17:45:24;;;;;;;48.53;22.17;;;0.60;91.70;;;;;;10412162;28;20022;-85
2022/03/06 17:50:24;;;;;;;46.53;21.20;;;0.60;91.90;;;;;;10436557;28;20092;-87
2022/03/06 17:55:25;;;;;;;47.43;22.40;;;0.60;92.40;;;;;;10396747;28;20626;-85
2022/03/06 18:00:27;;;;;;;43.13;21.17;;;0.60;93.60;;;;;;10412990;28;20118;-86
2022/03/06 18:05:27;;;;;;;42.33;19.40;;;0.60;94.80;;;;;;10414624;28;20671;-87
2022/03/06 18:10:28;;;;;;;46.23;22.97;;;0.60;95.80;;;;;;10413115;28;20057;-84
2022/03/06 18:15:30;;;;;;;39.53;19.17;;;0.60;95.40;;;;;;10393822;28;20160;-86
2022/03/06 18:20:32;;;;;;;41.43;20.20;;;0.60;95.90;;;;;;10411989;28;20029;-86
2022/03/06 18:25:33;;;;;;;41.43;20.33;;;0.60;96.90;;;;;;10394291;28;20106;-85
2022/03/06 18:30:57;;;;;;;39.30;19.63;;;0.50;97.50;;;;;;10410876;28;20048;-86
2022/03/06 18:35:58;;;;;;;44.63;21.03;;;0.50;99.10;;;;;;10371061;28;20113;-85
2022/03/06 18:41:02;;;;;;;42.93;20.77;;;0.40;98.20;;;;;;10393429;28;20424;-86
2022/03/06 18:46:02;;;;;;;53.93;24.17;;;0.40;99.30;;;;;;10389810;28;20033;-86
2022/03/06 18:51:04;;;;;;;48.77;22.37;;;0.40;99.90;;;;;;10413103;28;20053;-86
2022/03/06 18:56:06;;;;;;;55.47;23.47;;;0.30;99.90;;;;;;10409779;28;20033;-84
2022/03/06 19:01:07;;;;;;;52.23;25.43;;;0.30;99.90;;;;;;10411018;28;20086;-84
2022/03/06 19:06:08;;;;;;;57.77;25.73;;;0.30;99.90;;;;;;10407838;28;20053;-86
2022/03/06 19:11:10;;;;;;;52.87;23.77;;;0.30;99.90;;;;;;10390041;28;20049;-85
2022/03/06 19:16:13;;;;;;;47.53;21.70;;;0.30;99.90;;;;;;10412931;28;20061;-84
2022/03/06 19:21:13;;;;;;;46.10;20.93;;;0.10;99.90;;;;;;10391241;28;20436;-85
2022/03/06 19:26:14;;;;;;;49.37;21.67;;;0.10;99.90;;;;;;10392720;28;20030;-84
2022/03/06 19:31:15;;;;;;;43.27;20.10;;;0.10;99.90;;;;;;10391843;28;20037;-84
2022/03/06 19:36:17;;;;;;;44.53;20.83;;;0.00;99.90;;;;;;10402174;28;20017;-84
2022/03/06 19:41:18;;;;;;;53.07;24.10;;;0.10;99.90;;;;;;10408196;28;20018;-82
2022/03/06 19:46:18;;;;;;;49.50;22.23;;;0.10;99.90;;;;;;10385108;28;20055;-84
2022/03/06 19:51:19;;;;;;;51.00;23.53;;;0.10;99.90;;;;;;10406984;28;20025;-86
2022/03/06 19:56:20;;;;;;;55.57;23.73;;;0.10;99.90;;;;;;10409381;28;20424;-83
2022/03/06 20:01:21;;;;;;;50.07;23.27;;;0.00;99.90;;;;;;10408486;28;20084;-84
2022/03/06 20:06:22;;;;;;;54.03;24.77;;;0.00;99.90;;;;;;10409200;28;20091;-84
2022/03/06 20:11:23;;;;;;;52.10;24.47;;;0.00;99.90;;;;;;10403107;28;20057;-85
2022/03/06 20:16:24;;;;;;;53.50;25.10;;;0.10;99.90;;;;;;10412545;28;20473;-86
2022/03/06 20:21:25;;;;;;;60.67;27.33;;;0.10;99.90;;;;;;10409080;28;20029;-84
2022/03/06 20:26:26;;;;;;;52.03;24.23;;;0.10;99.90;;;;;;10396871;28;20022;-85
2022/03/06 20:31:27;;;;;;;54.43;23.90;;;0.10;99.90;;;;;;10407848;28;20033;-84
2022/03/06 20:36:28;;;;;;;56.03;23.60;;;0.00;99.90;;;;;;10408357;28;20045;-84
2022/03/06 20:41:28;;;;;;;54.53;23.97;;;0.00;99.90;;;;;;10393838;28;20029;-84
2022/03/06 20:46:29;;;;;;;47.73;21.23;;;-0.10;99.90;;;;;;10407417;28;20053;-84
2022/03/06 20:51:30;;;;;;;43.80;21.43;;;-0.10;99.90;;;;;;10407708;28;20042;-85
2022/03/06 20:56:31;;;;;;;49.77;21.67;;;-0.10;99.90;;;;;;10408034;28;20034;-84
2022/03/06 21:01:31;;;;;;;49.90;22.33;;;-0.20;99.90;;;;;;10406901;28;20034;-86
2022/03/06 21:06:32;;;;;;;45.37;21.20;;;-0.20;99.90;;;;;;10406835;28;20053;-83
2022/03/06 21:11:33;;;;;;;43.97;22.03;;;-0.20;99.90;;;;;;10390412;28;20124;-84
2022/03/06 21:16:34;;;;;;;51.77;22.17;;;-0.20;99.90;;;;;;10388885;28;20120;-84
2022/03/06 21:21:35;;;;;;;43.43;21.10;;;-0.20;99.90;;;;;;10407127;28;20112;-84
2022/03/06 21:26:37;;;;;;;48.17;22.20;;;-0.20;99.90;;;;;;10406925;28;20036;-85
2022/03/06 21:31:37;;;;;;;44.47;21.83;;;-0.20;99.90;;;;;;10402842;28;20018;-84
2022/03/06 21:36:38;;;;;;;46.43;21.73;;;-0.20;99.90;;;;;;10406444;28;20025;-85
2022/03/06 21:41:39;;;;;;;53.07;22.90;;;-0.20;99.90;;;;;;10405994;28;20030;-86
2022/03/06 21:46:40;;;;;;;43.87;20.43;;;-0.30;99.90;;;;;;10389567;28;20032;-87
2022/03/06 21:51:40;;;;;;;40.53;20.67;;;-0.30;99.90;;;;;;10400963;28;20105;-84
2022/03/06 21:56:41;;;;;;;46.00;20.47;;;-0.30;99.90;;;;;;10375087;28;20516;-85
2022/03/06 22:01:45;;;;;;;47.63;21.43;;;-0.30;99.90;;;;;;10376002;28;20555;-86
2022/03/06 22:06:46;;;;;;;47.27;22.90;;;-0.40;99.90;;;;;;10387676;28;20095;-87
2022/03/06 22:11:46;;;;;;;50.77;23.70;;;-0.40;99.90;;;;;;10395357;28;20037;-86
2022/03/06 22:16:47;;;;;;;49.47;22.63;;;-0.40;99.90;;;;;;10409454;28;20046;-87
2022/03/06 22:21:48;;;;;;;47.87;22.03;;;-0.40;99.90;;;;;;10413492;28;20063;-84
2022/03/06 22:26:49;;;;;;;45.17;22.10;;;-0.60;98.90;;;;;;10395570;28;20041;-88
2022/03/06 22:31:50;;;;;;;42.03;20.30;;;-0.70;97.70;;;;;;10412296;28;20087;-86
2022/03/06 22:36:51;;;;;;;46.20;23.13;;;-0.70;98.60;;;;;;10395513;28;20049;-86
2022/03/06 22:41:51;;;;;;;44.53;21.90;;;-0.70;98.60;;;;;;10413243;28;20061;-86
2022/03/06 22:46:52;;;;;;;39.17;18.53;;;-0.70;98.20;;;;;;10394094;28;20045;-86
2022/03/06 22:51:53;;;;;;;38.20;18.90;;;-0.70;98.00;;;;;;10394303;28;20030;-85
2022/03/06 22:56:54;;;;;;;39.33;20.00;;;-0.70;97.80;;;;;;10412142;28;20533;-88
2022/03/06 23:01:55;;;;;;;39.23;19.77;;;-0.80;96.30;;;;;;10411809;28;20029;-86
2022/03/06 23:07:09;;;;;;;40.57;18.67;;;-0.80;95.40;;;;;;10411482;28;20038;-86
2022/03/06 23:12:14;;;;;;;40.70;20.27;;;-0.80;95.10;;;;;;10410547;28;20060;-86
2022/03/06 23:17:16;;;;;;;45.63;20.83;;;-0.80;95.20;;;;;;10411670;28;20064;-86
2022/03/06 23:22:16;;;;;;;42.40;18.83;;;-0.80;94.30;;;;;;10393647;28;20034;-86
2022/03/06 23:27:17;;;;;;;39.27;19.13;;;-0.80;94.90;;;;;;10410014;28;20038;-85
2022/03/06 23:32:18;;;;;;;36.50;18.40;;;-0.90;94.10;;;;;;10410026;28;20040;-86
2022/03/06 23:37:19;;;;;;;40.60;21.10;;;-0.90;94.50;;;;;;10410764;28;20524;-88
2022/03/06 23:42:20;;;;;;;40.17;20.10;;;-0.90;94.10;;;;;;10410934;28;20045;-86
2022/03/06 23:47:21;;;;;;;44.53;20.80;;;-1.00;93.40;;;;;;10409127;28;20083;-85
2022/03/06 23:52:22;;;;;;;44.43;20.10;;;-1.00;93.90;;;;;;10410552;28;20388;-86
2022/03/06 23:57:23;;;;;;;42.17;20.50;;;-1.00;93.60;;;;;;10410241;28;20492;-85
